createdAt,value
2018-11-27T00:01:42.946Z,33.67
2018-11-27T00:06:47.482Z,33.70
2018-11-27T00:11:52.034Z,33.03
2018-11-27T00:16:56.648Z,28.93
2018-11-27T00:22:01.181Z,36.07
2018-11-27T00:27:05.758Z,33.70
2018-11-27T00:32:10.328Z,32.00
2018-11-27T00:37:14.911Z,30.67
2018-11-27T00:42:19.462Z,28.90
2018-11-27T00:47:24.157Z,30.90
2018-11-27T00:52:28.692Z,28.10
2018-11-27T00:57:33.251Z,25.03
2018-11-27T01:02:37.862Z,30.07
2018-11-27T01:07:42.410Z,28.57
2018-11-27T01:12:47.010Z,28.53
2018-11-27T01:18:10.591Z,30.70
2018-11-27T01:23:15.137Z,34.33
2018-11-27T01:28:19.664Z,34.33
2018-11-27T01:33:24.205Z,31.33
2018-11-27T01:38:28.788Z,34.13
2018-11-27T01:43:33.304Z,34.30
2018-11-27T01:48:38.107Z,32.87
2018-11-27T01:53:42.786Z,33.63
2018-11-27T01:58:47.313Z,38.47
2018-11-27T02:03:51.860Z,41.10
2018-11-27T02:08:56.402Z,39.77
2018-11-27T02:14:01.020Z,48.03
2018-11-27T02:19:05.792Z,39.43
2018-11-27T02:24:10.389Z,39.50
2018-11-27T02:29:14.960Z,42.00
2018-11-27T02:34:19.495Z,39.33
2018-11-27T02:39:24.061Z,39.87
2018-11-27T02:44:28.619Z,40.60
2018-11-27T02:49:35.541Z,41.63
2018-11-27T02:54:37.670Z,40.07
2018-11-27T02:59:42.278Z,32.00
2018-11-27T03:04:46.830Z,32.33
2018-11-27T03:09:51.403Z,33.77
2018-11-27T03:14:55.996Z,36.50
2018-11-27T03:20:00.510Z,38.47
2018-11-27T03:25:05.417Z,36.00
2018-11-27T03:30:29.031Z,34.77
2018-11-27T03:35:33.561Z,35.00
2018-11-27T03:40:56.857Z,32.65
2018-11-27T03:46:20.415Z,33.00
2018-11-27T03:51:25.019Z,29.40
2018-11-27T03:56:29.630Z,31.43
2018-11-27T04:01:34.222Z,29.40
2018-11-27T04:06:38.860Z,33.50
2018-11-27T04:11:43.453Z,36.03
2018-11-27T04:16:47.985Z,32.10
2018-11-27T04:21:52.576Z,32.30
2018-11-27T04:26:57.174Z,34.03
2018-11-27T04:32:01.715Z,32.37
2018-11-27T04:37:06.510Z,30.67
2018-11-27T04:42:29.812Z,25.97
2018-11-27T04:47:34.385Z,29.17
2018-11-27T04:52:38.964Z,27.37
2018-11-27T04:58:02.512Z,27.07
2018-11-27T05:03:07.527Z,25.97
2018-11-27T05:08:12.070Z,26.47
2018-11-27T05:13:16.630Z,25.43
2018-11-27T05:18:40.191Z,29.23
2018-11-27T05:24:03.877Z,30.10
2018-11-27T05:29:08.619Z,26.23
2018-11-27T05:44:33.001Z,32.10
2018-11-27T05:49:56.612Z,29.15
2018-11-27T05:55:01.084Z,30.17
2018-11-27T06:00:25.368Z,29.07
2018-11-27T06:10:53.570Z,34.17
2018-11-27T06:15:58.115Z,29.77
2018-11-27T06:21:02.669Z,29.30
2018-11-27T06:26:07.227Z,33.63
2018-11-27T06:31:11.828Z,38.47
2018-11-27T06:36:16.384Z,33.63
2018-11-27T06:41:21.002Z,32.10
2018-11-27T06:46:44.586Z,36.50
2018-11-27T06:51:49.116Z,30.27
2018-11-27T06:56:53.668Z,30.50
2018-11-27T07:01:58.295Z,32.47
2018-11-27T07:07:02.864Z,35.83
2018-11-27T07:12:07.597Z,32.47
2018-11-27T07:17:31.155Z,33.33
2018-11-27T07:22:35.698Z,34.80
2018-11-27T07:27:40.248Z,36.80
2018-11-27T07:32:44.782Z,33.37
2018-11-27T07:37:49.592Z,35.40
2018-11-27T07:42:58.275Z,36.43
2018-11-27T07:48:02.855Z,37.83
2018-11-27T07:53:07.863Z,37.93
2018-11-27T07:58:12.406Z,38.27
2018-11-27T08:03:16.988Z,39.27
2018-11-27T08:08:40.316Z,35.47
2018-11-27T08:13:44.977Z,35.87
2018-11-27T08:18:49.848Z,36.80
2018-11-27T08:24:13.242Z,36.03
2018-11-27T08:29:17.905Z,35.97
2018-11-27T08:34:22.707Z,35.00
2018-11-27T08:39:27.463Z,35.37
2018-11-27T08:44:32.049Z,40.17
2018-11-27T08:49:36.648Z,38.37
2018-11-27T08:54:41.288Z,41.13
2018-11-27T08:59:45.939Z,35.13
2018-11-27T09:04:50.503Z,40.07
2018-11-27T09:09:55.336Z,41.20
2018-11-27T09:14:59.934Z,39.70
2018-11-27T09:20:04.718Z,42.37
2018-11-27T09:25:11.136Z,42.73
2018-11-27T09:30:34.801Z,37.77
2018-11-27T09:35:58.339Z,40.03
2018-11-27T09:41:02.908Z,35.97
2018-11-27T09:46:07.945Z,36.87
2018-11-27T09:51:12.515Z,32.65
2018-11-27T09:56:17.115Z,34.80
2018-11-27T10:01:21.722Z,32.33
2018-11-27T10:06:26.369Z,33.77
2018-11-27T10:11:30.891Z,33.30
2018-11-27T10:16:35.555Z,32.63
2018-11-27T10:21:40.090Z,30.03
2018-11-27T10:26:44.690Z,31.13
2018-11-27T10:31:49.260Z,31.93
2018-11-27T10:36:53.828Z,32.87
2018-11-27T10:42:17.415Z,28.77
2018-11-27T10:47:22.032Z,29.20
2018-11-27T10:52:26.666Z,31.17
2018-11-27T10:57:31.134Z,31.53
2018-11-27T11:02:36.444Z,29.87
2018-11-27T11:07:41.060Z,29.30
2018-11-27T11:12:45.651Z,28.77
2018-11-27T11:17:50.232Z,26.73
2018-11-27T11:22:54.766Z,28.37
2018-11-27T11:28:00.139Z,26.20
2018-11-27T11:33:04.749Z,28.07
2018-11-27T11:38:09.521Z,29.40
2018-11-27T11:43:14.115Z,28.97
2018-11-27T11:48:18.657Z,26.80
2018-11-27T11:53:26.227Z,26.77
2018-11-27T11:58:49.738Z,25.43
2018-11-27T12:03:54.431Z,25.53
2018-11-27T12:08:59.016Z,25.60
2018-11-27T12:14:03.549Z,25.10
2018-11-27T12:19:08.100Z,26.47
2018-11-27T12:24:12.671Z,25.60
2018-11-27T12:29:17.266Z,24.03
2018-11-27T12:34:21.858Z,24.80
2018-11-27T12:39:26.479Z,25.77
2018-11-27T12:44:31.107Z,30.13
2018-11-27T12:49:35.732Z,28.93
2018-11-27T12:54:40.297Z,28.20
2018-11-27T13:00:04.206Z,26.43
2018-11-27T13:05:10.682Z,28.77
2018-11-27T13:10:16.456Z,27.97
2018-11-27T13:15:21.909Z,27.17
2018-11-27T13:20:45.433Z,29.47
2018-11-27T13:25:50.062Z,32.20
2018-11-27T13:31:13.774Z,30.60
2018-11-27T13:36:18.357Z,32.10
2018-11-27T13:41:22.939Z,27.20
2018-11-27T13:46:27.515Z,27.13
2018-11-27T13:51:32.115Z,29.80
2018-11-27T13:56:36.687Z,27.17
2018-11-27T14:01:41.216Z,28.93
2018-11-27T14:06:45.766Z,31.40
2018-11-27T14:11:50.284Z,29.77
2018-11-27T14:16:54.816Z,29.77
2018-11-27T14:21:59.371Z,31.23
2018-11-27T14:27:04.168Z,28.87
2018-11-27T14:32:08.802Z,31.73
2018-11-27T14:37:13.408Z,29.27
2018-11-27T14:42:17.941Z,34.07
2018-11-27T14:47:22.625Z,32.60
2018-11-27T14:52:27.225Z,29.77
2018-11-27T14:57:31.784Z,32.80
2018-11-27T15:02:36.501Z,30.73
2018-11-27T15:07:41.355Z,31.42
2018-11-27T15:12:45.848Z,33.10
2018-11-27T15:17:50.464Z,33.83
2018-11-27T15:22:55.057Z,33.60
2018-11-27T15:27:59.629Z,32.50
2018-11-27T15:33:04.361Z,30.27
2018-11-27T15:38:09.122Z,30.53
2018-11-27T15:43:13.749Z,33.33
2018-11-27T15:48:18.455Z,31.33
2018-11-27T15:53:22.920Z,31.03
2018-11-27T15:58:27.550Z,32.50
2018-11-27T16:03:32.225Z,35.30
2018-11-27T16:08:36.756Z,33.00
2018-11-27T16:13:41.296Z,33.33
2018-11-27T16:19:04.850Z,34.73
2018-11-27T16:24:09.427Z,33.47
2018-11-27T16:29:14.018Z,33.20
2018-11-27T16:34:18.580Z,33.03
2018-11-27T16:39:23.117Z,34.47
2018-11-27T16:44:27.680Z,39.97
2018-11-27T16:49:50.881Z,34.93
2018-11-27T16:54:55.401Z,37.10
2018-11-27T16:59:59.952Z,36.53
2018-11-27T17:05:04.568Z,37.23
2018-11-27T17:10:28.149Z,40.07
2018-11-27T17:15:32.685Z,36.43
2018-11-27T17:20:39.002Z,38.17
2018-11-27T17:26:04.113Z,37.07
2018-11-27T17:31:26.283Z,36.83
2018-11-27T17:36:30.903Z,33.63
2018-11-27T17:41:35.585Z,34.83
2018-11-27T17:46:59.451Z,39.70
2018-11-27T17:52:04.130Z,37.93
2018-11-27T17:57:27.676Z,40.10
2018-11-27T18:02:32.281Z,38.13
2018-11-27T18:07:37.035Z,39.73
2018-11-27T18:13:01.071Z,38.17
2018-11-27T18:18:05.690Z,38.83
2018-11-27T18:23:10.357Z,37.90
2018-11-27T18:28:15.025Z,36.57
2018-11-27T18:33:19.553Z,35.90
2018-11-27T18:38:24.140Z,35.40
2018-11-27T18:43:28.709Z,36.90
2018-11-27T18:48:33.297Z,33.80
2018-11-27T18:53:37.963Z,34.73
2018-11-27T18:59:01.602Z,38.63
2018-11-27T19:04:06.398Z,32.53
2018-11-27T19:09:11.399Z,36.65
2018-11-27T19:14:15.974Z,33.43
2018-11-27T19:19:20.534Z,34.43
2018-11-27T19:24:25.053Z,33.53
2018-11-27T19:29:29.647Z,32.60
2018-11-27T19:34:53.226Z,37.50
2018-11-27T19:39:58.018Z,32.23
2018-11-27T19:45:02.568Z,34.40
2018-11-27T19:50:26.193Z,31.80
2018-11-27T19:55:30.748Z,34.35
2018-11-27T20:00:54.316Z,36.20
2018-11-27T20:05:58.881Z,33.97
2018-11-27T20:11:03.480Z,33.87
2018-11-27T20:16:08.460Z,31.93
2018-11-27T20:21:32.116Z,30.10
2018-11-27T20:26:36.850Z,30.70
2018-11-27T20:32:00.425Z,30.37
2018-11-27T20:37:12.373Z,31.63
2018-11-27T20:42:17.092Z,30.83
2018-11-27T20:47:21.688Z,34.07
2018-11-27T20:52:26.307Z,32.07
2018-11-27T20:57:31.421Z,29.73
2018-11-27T21:02:36.138Z,33.03
2018-11-27T21:07:59.552Z,33.57
2018-11-27T21:13:04.196Z,31.97
2018-11-27T21:18:09.432Z,33.30
2018-11-27T21:23:13.988Z,32.67
2018-11-27T21:28:19.747Z,33.77
2018-11-27T21:33:43.225Z,30.40
2018-11-27T21:38:47.803Z,33.77
2018-11-27T21:43:54.509Z,33.67
2018-11-27T21:49:18.074Z,35.07
2018-11-27T21:54:22.850Z,35.13
2018-11-27T21:59:46.448Z,34.93
2018-11-27T22:05:10.042Z,34.13
2018-11-27T22:10:19.058Z,33.90
2018-11-27T22:15:36.821Z,36.37
2018-11-27T22:20:41.411Z,40.10
2018-11-27T22:25:46.029Z,35.17
2018-11-27T22:30:50.765Z,34.10
2018-11-27T22:35:55.356Z,36.57
2018-11-27T22:40:59.909Z,34.30
2018-11-27T22:46:04.480Z,35.47
2018-11-27T22:51:28.063Z,32.03
2018-11-27T22:56:51.620Z,34.55
2018-11-27T23:01:56.325Z,38.37
2018-11-27T23:07:00.827Z,36.63
2018-11-27T23:12:05.541Z,37.87
2018-11-27T23:17:10.117Z,34.00
2018-11-27T23:22:14.665Z,33.63
2018-11-27T23:27:19.254Z,36.00
2018-11-27T23:32:23.811Z,35.23
2018-11-27T23:37:28.357Z,37.33
2018-11-27T23:42:32.982Z,36.17
2018-11-27T23:47:37.612Z,37.10
2018-11-27T23:53:01.064Z,34.50
2018-11-27T23:58:24.602Z,33.83
